Latest Weather Observations for Parkes Airport

IDN60801

Issued at 2:52 pm EDT Friday 16 November 2018 (issued every 10 minutes, with the page automatically refreshed every 10 minutes)

About weather observations | Map of weather stations | Latest weather observations for NSW | Other Formats
Station Details ID: 065068 Name: PARKES AIRPORT AWS Lat: -33.13 Lon: 148.24 Height: 323.3 m
Data from the previous 72 hours. | See also: Recent months at Parkes Airport
Date/Time
EDT
Temp
°C
App
Temp
°C
Dew
Point
°C
Rel
Hum
%
Delta-T
°C
Wind Press
QNH
hPa
Press
MSL
hPa
Rain since
9am
mm
Dir  Spd
km/h
Gust
km/h
Spd
kts
Gust
kts
16/02:30pm 27.8 24.5 6.6 26 11.4 SSW 13 24 7 13 1016.3 1015.2 0.0
16/02:00pm 27.0 23.3 4.7 24 11.5 WSW 13 22 7 12 1016.7 1015.6 0.0
16/01:30pm 27.0 23.6 5.9 26 11.1 SSW 13 22 7 12 1017.0 1015.9 0.0
16/01:00pm 26.1 22.4 6.2 28 10.5 SSW 15 26 8 14 1017.5 1016.3 0.0
16/12:30pm 26.7 25.1 8.6 32 10.0 SE 7 13 4 7 1017.8 1016.6 0.0
16/12:00pm 25.2 23.0 7.8 33 9.4 WNW 9 13 5 7 1018.2 1017.0 0.0
16/11:30am 25.0 22.4 7.6 33 9.3 W 11 20 6 11 1018.6 1017.5 0.0
16/11:00am 25.1 22.9 7.7 33 9.3 ENE 9 17 5 9 1018.7 1017.6 0.0
16/10:30am 23.5 21.9 10.2 43 7.4 NNE 9 20 5 11 1019.0 1017.9 0.0
16/10:00am 23.1 21.7 10.9 46 6.9 NE 9 19 5 10 1019.0 1017.9 0.0
16/09:30am 22.3 20.3 11.4 50 6.2 NNE 13 17 7 9 1019.0 1017.9 0.0
16/09:00am 21.2 19.1 11.2 53 5.6 NE 13 20 7 11 1019.2 1018.1 0.0
16/08:30am 20.3 17.9 11.5 57 4.9 ENE 15 22 8 12 1019.2 1018.1 0.0
16/08:00am 19.2 16.1 11.5 61 4.3 ENE 19 22 10 12 1019.1 1018.0 0.0
16/07:30am 18.1 16.2 11.9 67 3.5 E 13 17 7 9 1019.1 1018.0 0.0
16/07:00am 16.7 14.8 11.8 73 2.7 ENE 13 19 7 10 1019.1 1018.0 0.0
16/06:30am 13.6 13.6 11.1 85 1.3 ESE 2 7 1 4 1018.9 1017.8 0.0
16/06:00am 12.0 11.9 9.4 84 1.3 CALM 0 0 0 0 1018.7 1017.6 0.0
16/05:30am 13.0 13.2 10.4 84 1.4 CALM 0 0 0 0 1018.5 1017.4 0.0
16/05:00am 12.5 12.4 9.3 81 1.6 CALM 0 6 0 3 1018.4 1017.3 0.0
16/04:30am 14.6 13.5 10.6 77 2.1 E 7 9 4 5 1018.2 1017.0 0.0
16/04:00am 15.7 13.2 11.1 74 2.5 NE 15 19 8 10 1018.2 1017.0 0.0
16/03:30am 16.6 13.8 11.5 72 2.8 NE 17 22 9 12 1018.2 1017.0 0.0
16/03:00am 16.4 14.2 12.0 75 2.4 ENE 15 22 8 12 1018.4 1017.3 0.0
16/02:30am 16.6 14.0 12.0 74 2.6 ENE 17 22 9 12 1018.5 1017.4 0.0
16/02:00am 15.6 13.5 11.2 75 2.4 NE 13 17 7 9 1018.8 1017.7 0.0
16/01:30am 14.9 12.3 9.3 69 2.9 ENE 13 15 7 8 1019.0 1017.9 0.0
16/01:00am 13.9 10.4 7.2 64 3.3 E 15 15 8 8 1019.1 1018.0 0.0
16/12:30am 14.4 13.4 5.7 56 4.2 CALM 0 0 0 0 1019.3 1018.2 0.0
16/12:00am 16.0 15.1 6.2 52 4.8 CALM 0 0 0 0 1019.5 1018.4 0.0
 
Date/Time
EDT
Temp
°C
App
Temp
°C
Dew
Point
°C
Rel
Hum
%
Delta-T
°C
Wind Press
QNH
hPa
Press
MSL
hPa
Rain since
9am
mm
Dir  Spd
km/h
Gust
km/h
Spd
kts
Gust
kts
15/11:30pm 17.7 15.5 6.3 47 5.7 SSW 7 9 4 5 1019.5 1018.4 0.0
15/11:00pm 17.2 15.5 7.5 53 4.9 SSW 6 9 3 5 1019.5 1018.4 0.0
15/10:30pm 17.5 14.8 7.3 51 5.2 SW 11 11 6 6 1019.2 1018.1 0.0
15/10:00pm 18.9 16.2 7.4 47 5.9 SSW 11 13 6 7 1019.1 1018.0 0.0
15/09:30pm 20.1 16.9 6.8 42 6.8 SSW 13 15 7 8 1018.9 1017.8 0.0
15/09:00pm 20.5 17.3 6.8 41 7.0 SSW 13 15 7 8 1018.5 1017.4 0.0
15/08:30pm 20.8 17.9 6.4 39 7.4 SSW 11 13 6 7 1018.3 1017.2 0.0
15/08:00pm 23.4 19.2 5.8 32 9.0 SSW 17 20 9 11 1018.0 1016.8 0.0
15/07:30pm 25.4 20.6 5.6 28 10.3 SW 20 26 11 14 1017.7 1016.5 0.0
15/07:00pm 26.7 21.8 6.7 28 10.7 SW 22 28 12 15 1017.3 1016.1 0.0
15/06:30pm 27.4 21.6 6.2 26 11.3 SW 26 35 14 19 1016.9 1015.8 0.0
15/06:00pm 28.1 22.3 6.2 25 11.7 SW 26 41 14 22 1016.6 1015.5 0.0
15/05:38pm 28.5 22.4 6.6 25 11.8 SW 28 46 15 25 1016.5 1015.4 0.0
15/05:30pm 28.9 23.1 6.3 24 12.1 SW 26 35 14 19 1016.5 1015.4 0.0
15/05:00pm 29.4 23.9 4.1 20 13.1 WSW 22 35 12 19 1016.3 1015.2 0.0
15/04:43pm 29.5 23.3 4.2 20 13.1 SW 26 44 14 24 1016.4 1015.3 0.0
15/04:30pm 29.0 24.5 7.0 25 11.9 WSW 20 32 11 17 1016.4 1015.3 0.0
15/04:00pm 29.4 25.1 7.9 26 11.9 WSW 20 33 11 18 1016.5 1015.4 0.0
15/03:30pm 29.5 24.8 9.1 28 11.5 WSW 24 35 13 19 1016.6 1015.5 0.0
15/03:00pm 29.5 24.2 8.5 27 11.7 W 26 37 14 20 1017.0 1015.9 0.0
15/02:30pm 29.8 25.6 9.9 29 11.4 SW 22 35 12 19 1017.5 1016.3 0.0
15/02:00pm 28.8 24.2 10.9 33 10.3 WSW 26 39 14 21 1017.6 1016.4 0.0
15/01:30pm 29.1 24.5 11.2 33 10.4 WSW 26 41 14 22 1017.9 1016.7 0.0
15/01:00pm 27.8 23.8 11.8 37 9.3 SW 24 41 13 22 1018.1 1016.9 0.0
15/12:30pm 28.4 24.7 12.7 38 9.3 SW 24 35 13 19 1018.3 1017.2 0.0
15/12:00pm 27.7 24.2 12.1 38 9.1 WSW 22 32 12 17 1018.5 1017.4 0.0
15/11:30am 27.0 23.9 12.3 40 8.6 SW 20 28 11 15 1018.7 1017.6 0.0
15/11:00am 26.3 25.7 14.7 48 7.0 SW 11 20 6 11 1018.9 1017.8 0.0
15/10:30am 26.2 25.6 15.6 52 6.5 WNW 13 19 7 10 1018.8 1017.7 0.0
15/10:00am 25.0 25.6 15.3 55 5.9 W 6 13 3 7 1018.9 1017.8 0.0
15/09:30am 24.1 24.7 15.3 58 5.4 WSW 6 9 3 5 1018.9 1017.8 0.0
15/09:00am 23.1 24.5 15.4 62 4.7 NW 2 7 1 4 1018.9 1017.8 0.2
15/08:30am 21.7 23.4 15.3 67 3.9 CALM 0 6 0 3 1018.8 1017.7 0.2
15/08:00am 19.8 21.5 15.2 75 2.7 CALM 0 0 0 0 1018.6 1017.5 0.2
15/07:30am 17.4 18.3 15.0 86 1.4 NE 4 9 2 5 1018.3 1017.2 0.2
15/07:00am 16.5 17.9 14.5 88 1.2 CALM 0 0 0 0 1018.1 1016.9 0.2
15/06:30am 15.0 16.2 13.7 92 0.7 CALM 0 4 0 2 1017.6 1016.4 0.2
15/06:00am 14.4 14.6 13.0 91 0.8 NNE 4 7 2 4 1017.0 1015.9 0.2
15/05:30am 14.4 14.0 13.0 91 0.8 NE 7 9 4 5 1016.4 1015.3 0.2
15/05:00am 14.6 15.2 13.0 90 0.9 NNE 2 9 1 5 1016.1 1015.0 0.2
15/04:30am 14.9 14.1 12.8 87 1.2 NNE 9 11 5 6 1015.9 1014.8 0.2
15/04:00am 15.6 14.9 13.3 86 1.3 ENE 9 11 5 6 1015.7 1014.6 0.2
15/03:30am 16.2 14.4 13.3 83 1.6 E 15 15 8 8 1015.6 1014.5 0.2
15/03:00am 16.4 15.7 13.3 82 1.8 ENE 9 11 5 6 1015.9 1014.8 0.2
15/02:30am 17.1 14.9 13.4 79 2.1 ENE 17 19 9 10 1016.0 1014.9 0.2
15/02:00am 17.3 16.1 14.0 81 1.9 E 13 15 7 8 1016.6 1015.5 0.2
15/01:30am 17.3 16.6 14.2 82 1.8 E 11 13 6 7 1016.9 1015.8 0.2
15/01:00am 16.9 17.0 14.5 86 1.4 E 7 9 4 5 1017.1 1016.0 0.2
15/12:30am 16.0 16.2 14.2 89 1.0 N 6 7 3 4 1017.5 1016.3 0.2
15/12:00am 15.1 14.6 12.8 86 1.3 NNE 7 9 4 5 1017.4 1016.2 0.2
 
Date/Time
EDT
Temp
°C
App
Temp
°C
Dew
Point
°C
Rel
Hum
%
Delta-T
°C
Wind Press
QNH
hPa
Press
MSL
hPa
Rain since
9am
mm
Dir  Spd
km/h
Gust
km/h
Spd
kts
Gust
kts
14/11:30pm 15.8 15.1 13.1 84 1.5 NE 9 11 5 6 1017.1 1016.0 0.2
14/11:00pm 16.8 17.8 13.3 80 2.0 CALM 0 9 0 5 1017.1 1016.0 0.2
14/10:30pm 17.9 16.9 13.4 75 2.6 E 11 13 6 7 1017.1 1016.0 0.2
14/10:00pm 18.0 16.6 13.3 74 2.7 E 13 15 7 8 1017.0 1015.9 0.2
14/09:30pm 18.0 17.5 13.7 76 2.5 ENE 9 11 5 6 1016.9 1015.8 0.2
14/09:00pm 18.8 18.2 13.6 72 3.0 NNE 9 9 5 5 1016.7 1015.6 0.2
14/08:30pm 20.0 21.2 13.9 68 3.6 CALM 0 0 0 0 1016.4 1015.3 0.2
14/08:00pm 21.4 22.4 13.1 59 4.8 CALM 0 0 0 0 1016.0 1014.9 0.2
14/07:30pm 22.8 23.9 13.6 56 5.4 CALM 0 0 0 0 1015.9 1014.8 0.2
14/07:00pm 22.7 20.8 12.9 54 5.7 SE 15 19 8 10 1015.7 1014.6 0.2
14/06:30pm 23.0 20.2 13.2 54 5.7 SSE 20 26 11 14 1015.8 1014.7 0.2
14/06:00pm 25.6 23.5 13.5 47 7.2 WNW 17 20 9 11 1015.5 1014.3 0.2
14/05:30pm 26.4 24.3 13.5 45 7.7 NW 17 28 9 15 1015.2 1014.0 0.2
14/05:00pm 25.4 23.0 13.9 49 6.9 NNW 19 28 10 15 1015.0 1013.8 0.2
14/04:30pm 25.7 23.2 13.5 46 7.3 WNW 19 30 10 16 1015.0 1013.8 0.2
14/04:00pm 26.5 25.2 14.9 49 7.1 NW 15 20 8 11 1015.2 1014.0 0.2
14/03:30pm 25.8 23.9 14.3 49 6.9 NW 17 26 9 14 1015.4 1014.2 0.2
14/03:00pm 25.2 24.4 16.1 57 5.6 NW 15 24 8 13 1015.8 1014.7 0.2
14/02:30pm 23.7 23.5 15.7 61 4.9 WNW 11 20 6 11 1016.0 1014.9 0.2
14/02:00pm 23.0 23.0 16.3 66 4.1 W 11 19 6 10 1016.5 1015.4 0.2
14/01:30pm 21.8 22.6 15.9 69 3.6 NW 6 13 3 7 1017.0 1015.9 0.2
14/01:00pm 21.0 21.6 15.3 70 3.4 NNW 6 13 3 7 1017.1 1016.0 0.2
14/12:30pm 20.3 21.8 15.7 75 2.8 NNW 2 7 1 4 1017.3 1016.1 0.2
14/12:00pm 20.5 21.2 15.7 74 2.9 WNW 6 9 3 5 1017.6 1016.4 0.2
14/11:30am 20.2 21.7 15.6 75 2.8 NW 2 7 1 4 1017.7 1016.5 0.2
14/11:00am 19.8 21.3 15.7 77 2.5 N 2 6 1 3 1017.5 1016.3 0.2
14/10:30am 19.6 21.7 16.3 81 2.0 CALM 0 0 0 0 1017.6 1016.4 0.2
14/10:00am 19.6 20.5 16.1 80 2.1 WSW 6 9 3 5 1017.5 1016.3 0.2
14/09:30am 19.7 21.0 17.1 85 1.6 S 6 9 3 5 1017.3 1016.1 0.2
14/09:00am 18.9 21.0 16.3 85 1.6 CALM 0 0 0 0 1017.3 1016.1 2.0
14/08:30am 18.4 19.9 16.7 90 1.0 SE 4 11 2 6 1017.4 1016.2 -
14/08:00am 18.3 20.3 16.1 87 1.3 CALM 0 7 0 4 1016.9 1015.8 -
14/07:30am 18.6 19.7 15.7 83 1.7 WSW 4 7 2 4 1016.7 1015.6 -
14/07:00am 19.1 18.8 14.4 74 2.8 W 9 11 5 6 1016.2 1015.1 -
14/06:30am 19.1 19.5 13.7 71 3.1 ESE 4 7 2 4 1015.8 1014.7 -
14/06:00am 19.3 19.1 13.7 70 3.2 ESE 7 9 4 5 1015.6 1014.5 -
14/05:30am 19.4 18.5 13.8 70 3.3 ESE 11 17 6 9 1014.9 1013.7 -
14/05:00am 19.3 18.8 13.7 70 3.3 SE 9 11 5 6 1015.1 1013.9 -
14/04:30am 19.3 18.7 13.5 69 3.4 SSE 9 13 5 7 1015.2 1014.0 -
14/04:00am 19.2 18.6 13.6 70 3.2 S 9 11 5 6 1015.4 1014.2 -
14/03:30am 19.9 19.2 13.1 65 3.9 SSW 9 11 5 6 1015.7 1014.6 -
14/03:00am 19.7 18.6 13.2 66 3.7 SW 11 13 6 7 1015.7 1014.6 -
14/02:30am 20.4 19.2 12.9 62 4.3 S 11 15 6 8 1015.8 1014.7 -
14/02:00am 20.6 18.6 12.8 61 4.5 S 15 19 8 10 1015.7 1014.6 -
14/01:30am 20.5 18.5 12.7 61 4.5 S 15 19 8 10 1015.9 1014.8 -
14/01:00am 20.7 17.9 12.7 60 4.6 S 19 24 10 13 1016.2 1015.1 -
14/12:30am 20.9 18.3 12.1 57 5.0 S 17 20 9 11 1016.4 1015.3 -
14/12:00am 21.1 18.8 11.7 55 5.3 S 15 20 8 11 1016.4 1015.3 -
 
Date/Time
EDT
Temp
°C
App
Temp
°C
Dew
Point
°C
Rel
Hum
%
Delta-T
°C
Wind Press
QNH
hPa
Press
MSL
hPa
Rain since
9am
mm
Dir  Spd
km/h
Gust
km/h
Spd
kts
Gust
kts
13/11:30pm 21.4 19.4 11.4 53 5.6 S 13 17 7 9 1016.4 1015.3 -
13/11:00pm 21.7 18.9 11.4 52 5.8 S 17 20 9 11 1016.4 1015.3 -
13/10:30pm 22.1 19.9 10.9 49 6.3 SSW 13 17 7 9 1016.5 1015.4 -
13/10:00pm 22.6 19.2 10.7 47 6.7 SSW 19 20 10 11 1016.5 1015.4 -
13/09:30pm 23.5 20.3 9.9 42 7.5 SW 17 20 9 11 1016.3 1015.2 -
13/09:00pm 24.0 20.1 9.6 40 8.0 SW 20 30 11 16 1016.0 1014.9 -
13/08:30pm 24.7 21.6 9.0 37 8.6 WSW 15 26 8 14 1015.7 1014.6 -
13/08:00pm 25.0 22.2 8.5 35 9.0 SW 13 17 7 9 1015.4 1014.2 -
13/07:30pm 25.8 21.6 8.3 33 9.5 SW 20 28 11 15 1015.2 1014.0 -
13/07:08pm 26.9 22.5 7.4 29 10.5 W 20 41 11 22 1015.0 1013.8 -
13/07:00pm 27.9 23.9 6.6 26 11.4 WNW 17 22 9 12 1014.8 1013.6 -
13/06:30pm 28.5 24.4 6.0 24 12.0 NW 17 20 9 11 1014.3 1013.1 -
13/06:00pm 29.0 24.4 5.8 23 12.3 NW 19 26 10 14 1014.2 1013.0 -
13/05:30pm 29.7 25.3 6.4 23 12.6 NW 19 26 10 14 1014.1 1012.9 -
13/05:00pm 29.9 25.2 5.9 22 12.9 NNW 20 30 11 16 1013.7 1012.6 -
13/04:30pm 30.4 25.6 5.6 21 13.3 NW 20 30 11 16 1014.1 1012.9 -
13/04:00pm 31.2 26.4 5.6 20 13.7 NNW 20 32 11 17 1014.2 1013.0 -
13/03:00pm 32.1 26.5 5.6 19 14.3 NNW 24 37 13 20 1014.6 1013.4 0.0

Other Formats:

Comma delimited format used in spreadsheet applications
http://www.bom.gov.au/fwo/IDN60801/IDN60801.95717.axf

JavaScript Object Notation format (JSON) in row-major order
http://www.bom.gov.au/fwo/IDN60801/IDN60801.95717.json